Accueil
METAR-TAF:

METAR-TAF

Aéroports :

Jersey,

Aéroport de Jersey

latitude: 49-13N, longitude: 002-12W, altitude: 84 m

Observation

Le bulletin a été fait il y a 5 heures et 27 minutes, à 20:20 UTC
Vent 11 kt de ouest
Température 15°C
Humidité 94%
Pression 1020 hPa
Visibilité 10 km ou plus
Quelques nuages à une hauteur de 2000 ft

METAR: EGJJ 232020Z 26011KT 9999 FEW020 15/14 Q1020 NOSIG

Heure: 02:47 (01:47 UTC)

Prévision

Le bulletin a été fait il y a 2 heures et 49 minutes, à 22:58 UTC
Prévision valable du 24 à 00 UTC au 24 à 09 UTC
Vent 15 kt de sud-ouest
Visibilité 10 km ou plus
Nuages fragmentés à une hauteur de 300 ft
Temporairement
du 24 à 00 UTC au 24 à 09 UTC
Nuages épars à une hauteur de 300 ft

TAF: EGJJ 232258Z 2400/2409 23015KT 9999 BKN003 TEMPO 2400/2409 SCT003

Observations et prévisions météorologiques de plus de 4000 aéroports (messages METAR et TAF).

Les stations disponibles sont représentées par des disques jaunes et rouges sur la carte.

Passer la souris dessus pour voir le nom de la station.

Cliquer dessus pour voir les observations et prévisions météorologiques.

Pour changer de carte: cliquez sur les boutons verts avec une croix noire pour zoomer, sur le bouton vert avec un tiret pour effectuer un zoom arrière, ou sur les flèches vertes pour les cartes adjacentes.


METAR-TAF: